createdAt,value
2023-04-23T00:01:03.151Z,12.62
2023-04-23T00:02:43.525Z,12.59
2023-04-23T00:04:23.911Z,12.56
2023-04-23T00:06:04.105Z,12.55
2023-04-23T00:07:44.410Z,12.52
2023-04-23T00:09:24.688Z,12.5
2023-04-23T00:11:05.063Z,12.5
2023-04-23T00:12:45.385Z,12.5
2023-04-23T00:14:25.728Z,12.49
2023-04-23T00:16:06.060Z,12.48
2023-04-23T00:17:46.462Z,12.46
2023-04-23T00:19:26.769Z,12.5
2023-04-23T00:21:07.080Z,12.48
2023-04-23T00:22:47.436Z,12.46
2023-04-23T00:24:27.753Z,12.45
2023-04-23T00:26:08.148Z,12.45
2023-04-23T00:27:48.431Z,12.45
2023-04-23T00:29:28.798Z,12.43
2023-04-23T00:31:09.108Z,12.42
2023-04-23T00:32:49.469Z,12.43
2023-04-23T00:34:29.749Z,12.42
2023-04-23T00:36:10.043Z,12.42
2023-04-23T00:37:50.340Z,12.4
2023-04-23T00:39:30.707Z,12.4
2023-04-23T00:41:11.004Z,12.4
2023-04-23T00:42:51.456Z,12.4
2023-04-23T00:44:31.710Z,12.36
2023-04-23T00:46:12.084Z,12.36
2023-04-23T00:47:52.377Z,12.36
2023-04-23T00:49:32.606Z,12.4
2023-04-23T00:51:12.941Z,12.42
2023-04-23T00:52:53.238Z,12.4
2023-04-23T00:54:33.588Z,12.45
2023-04-23T00:56:13.966Z,12.39
2023-04-23T00:57:54.313Z,12.35
2023-04-23T00:59:34.674Z,12.36
2023-04-23T01:01:15.110Z,12.35
2023-04-23T01:02:55.380Z,12.35
2023-04-23T01:04:35.577Z,12.31
2023-04-23T01:06:15.857Z,12.31
2023-04-23T01:07:56.183Z,12.25
2023-04-23T01:09:36.540Z,12.25
2023-04-23T01:11:16.825Z,12.22
2023-04-23T01:12:57.139Z,12.21
2023-04-23T01:14:37.513Z,12.18
2023-04-23T01:16:17.960Z,12.15
2023-04-23T01:17:58.190Z,12.15
2023-04-23T01:19:38.604Z,12.11
2023-04-23T01:21:18.912Z,12.06
2023-04-23T01:22:59.237Z,12.08
2023-04-23T01:24:39.735Z,12.05
2023-04-23T01:26:19.877Z,12.05
2023-04-23T01:28:00.188Z,12
2023-04-23T01:29:40.584Z,12
2023-04-23T01:31:21.040Z,11.98
2023-04-23T01:33:01.334Z,11.98
2023-04-23T01:34:41.967Z,11.94
2023-04-23T01:36:22.056Z,11.94
2023-04-23T01:38:02.375Z,11.92
2023-04-23T01:39:42.781Z,11.87
2023-04-23T01:41:23.154Z,11.91
2023-04-23T01:43:03.504Z,11.84
2023-04-23T01:44:43.799Z,11.82
2023-04-23T01:46:24.238Z,11.78
2023-04-23T01:48:04.532Z,11.76
2023-04-23T01:49:44.889Z,11.74
2023-04-23T01:51:25.230Z,11.73
2023-04-23T01:53:05.578Z,11.69
2023-04-23T01:54:45.933Z,11.66
2023-04-23T01:56:26.227Z,11.64
2023-04-23T01:58:06.571Z,11.64
2023-04-23T01:59:46.916Z,11.66
2023-04-23T02:01:27.361Z,11.63
2023-04-23T02:03:07.909Z,11.61
2023-04-23T02:04:48.002Z,11.6
2023-04-23T02:06:28.441Z,11.57
2023-04-23T02:09:49.110Z,11.52
2023-04-23T02:11:29.424Z,11.54
2023-04-23T02:14:50.228Z,11.5
2023-04-23T02:16:30.538Z,11.46
2023-04-23T02:18:10.802Z,11.5
2023-04-23T02:19:51.092Z,11.47
2023-04-23T02:21:31.411Z,11.44
2023-04-23T02:23:11.802Z,11.47
2023-04-23T02:24:52.202Z,11.44
2023-04-23T02:26:32.523Z,11.44
2023-04-23T02:28:12.847Z,11.42
2023-04-23T02:29:53.139Z,11.42
2023-04-23T02:31:33.434Z,11.39
2023-04-23T02:33:13.874Z,11.37
2023-04-23T02:34:54.224Z,11.4
2023-04-23T02:36:34.545Z,11.39
2023-04-23T02:38:14.833Z,11.36
2023-04-23T02:39:55.180Z,11.39
2023-04-23T02:41:35.474Z,11.37
2023-04-23T02:43:15.809Z,11.36
2023-04-23T02:44:56.147Z,11.37
2023-04-23T02:46:36.564Z,11.37
2023-04-23T02:48:16.897Z,11.37
2023-04-23T02:49:57.215Z,11.36
2023-04-23T02:51:37.537Z,11.34
2023-04-23T02:53:17.891Z,11.34
2023-04-23T02:54:58.263Z,11.36
2023-04-23T02:56:38.648Z,11.34
2023-04-23T02:58:18.997Z,11.36
2023-04-23T02:59:59.344Z,11.34
2023-04-23T03:01:39.664Z,11.34
2023-04-23T03:03:20.211Z,11.32
2023-04-23T03:05:00.385Z,11.3
2023-04-23T03:06:40.715Z,11.3
2023-04-23T03:08:21.043Z,11.32
2023-04-23T03:10:01.311Z,11.27
2023-04-23T03:11:41.733Z,11.29
2023-04-23T03:13:22.066Z,11.27
2023-04-23T03:15:02.505Z,11.29
2023-04-23T03:16:42.839Z,11.27
2023-04-23T03:18:23.086Z,11.26
2023-04-23T03:20:03.367Z,11.26
2023-04-23T03:21:43.677Z,11.27
2023-04-23T03:23:24.028Z,11.27
2023-04-23T03:25:04.400Z,11.29
2023-04-23T03:26:44.717Z,11.27
2023-04-23T03:28:25.059Z,11.26
2023-04-23T03:30:05.487Z,11.27
2023-04-23T03:31:45.862Z,11.29
2023-04-23T03:33:26.303Z,11.29
2023-04-23T03:35:06.697Z,11.3
2023-04-23T03:36:46.989Z,11.3
2023-04-23T03:38:27.332Z,11.3
2023-04-23T03:40:07.844Z,11.32
2023-04-23T03:41:48.008Z,11.32
2023-04-23T03:43:28.354Z,11.32
2023-04-23T03:45:08.721Z,11.32
2023-04-23T03:46:48.990Z,11.32
2023-04-23T03:48:29.392Z,11.32
2023-04-23T03:50:09.687Z,11.34
2023-04-23T03:51:49.952Z,11.3
2023-04-23T03:53:30.275Z,11.3
2023-04-23T03:55:10.562Z,11.26
2023-04-23T03:56:50.885Z,11.29
2023-04-23T03:58:31.192Z,11.25
2023-04-23T04:00:11.455Z,11.22
2023-04-23T04:01:51.804Z,11.18
2023-04-23T04:03:32.290Z,11.19
2023-04-23T04:05:12.615Z,11.19
2023-04-23T04:06:52.706Z,11.18
2023-04-23T04:08:32.994Z,11.18
2023-04-23T04:10:13.313Z,11.15
2023-04-23T04:11:53.674Z,11.13
2023-04-23T04:13:34.029Z,11.13
2023-04-23T04:15:14.432Z,11.13
2023-04-23T04:16:54.775Z,11.08
2023-04-23T04:18:35.066Z,11.09
2023-04-23T04:20:15.398Z,11.08
2023-04-23T04:21:55.783Z,11.09
2023-04-23T04:23:36.037Z,11.08
2023-04-23T04:25:16.404Z,11.05
2023-04-23T04:26:56.737Z,11.04
2023-04-23T04:28:36.977Z,11.01
2023-04-23T04:30:17.363Z,11.02
2023-04-23T04:31:57.685Z,11.02
2023-04-23T04:33:38.020Z,11.02
2023-04-23T04:35:18.398Z,10.96
2023-04-23T04:36:58.719Z,10.99
2023-04-23T04:38:39.024Z,10.95
2023-04-23T04:40:19.383Z,10.96
2023-04-23T04:41:59.632Z,10.94
2023-04-23T04:43:39.995Z,10.95
2023-04-23T04:45:20.384Z,10.92
2023-04-23T04:47:00.861Z,10.95
2023-04-23T04:48:40.992Z,10.9
2023-04-23T04:50:21.297Z,10.92
2023-04-23T04:52:01.653Z,10.9
2023-04-23T04:53:41.995Z,10.9
2023-04-23T04:55:22.442Z,10.88
2023-04-23T04:57:02.811Z,10.85
2023-04-23T04:58:43.156Z,10.86
2023-04-23T05:00:23.570Z,10.84
2023-04-23T05:02:04.022Z,10.81
2023-04-23T05:03:44.459Z,10.81
2023-04-23T05:05:24.622Z,10.78
2023-04-23T05:07:04.963Z,10.78
2023-04-23T05:08:45.308Z,10.78
2023-04-23T05:10:25.634Z,10.78
2023-04-23T05:12:05.956Z,10.78
2023-04-23T05:13:46.281Z,10.76
2023-04-23T05:15:26.663Z,10.74
2023-04-23T05:17:06.952Z,10.74
2023-04-23T05:18:47.262Z,10.7
2023-04-23T05:20:27.597Z,10.71
2023-04-23T05:22:07.982Z,10.71
2023-04-23T05:23:48.266Z,10.72
2023-04-23T05:25:28.612Z,10.71
2023-04-23T05:27:08.962Z,10.7
2023-04-23T05:28:49.347Z,10.65
2023-04-23T05:30:29.670Z,10.68
2023-04-23T05:32:10.140Z,10.67
2023-04-23T05:33:51.006Z,10.67
2023-04-23T05:35:30.754Z,10.65
2023-04-23T05:37:11.090Z,10.68
2023-04-23T05:38:51.375Z,10.67
2023-04-23T05:40:31.671Z,10.67
2023-04-23T05:42:11.987Z,10.7
2023-04-23T05:43:52.293Z,10.7
2023-04-23T05:45:32.618Z,10.72
2023-04-23T05:47:12.905Z,10.79
2023-04-23T05:48:53.216Z,10.82
2023-04-23T05:50:33.501Z,10.85
2023-04-23T05:52:13.771Z,10.9
2023-04-23T05:53:54.082Z,10.94
2023-04-23T05:55:34.411Z,11.06
2023-04-23T05:57:14.736Z,11.12
2023-04-23T05:58:55.121Z,11.19
2023-04-23T06:00:35.562Z,11.23
2023-04-23T06:02:15.884Z,11.29
2023-04-23T06:03:56.391Z,11.32
2023-04-23T06:05:36.584Z,11.32
2023-04-23T06:07:16.960Z,11.34
2023-04-23T06:08:57.248Z,11.4
2023-04-23T06:10:37.571Z,11.47
2023-04-23T06:12:17.873Z,11.57
2023-04-23T06:13:58.176Z,11.63
2023-04-23T06:15:38.559Z,11.73
2023-04-23T06:17:18.791Z,11.77
2023-04-23T06:18:59.120Z,11.82
2023-04-23T06:20:39.379Z,11.87
2023-04-23T06:22:19.708Z,11.92
2023-04-23T06:24:00.026Z,12.04
2023-04-23T06:25:40.319Z,12.09
2023-04-23T06:27:20.653Z,12.12
2023-04-23T06:29:01.018Z,12.21
2023-04-23T06:30:41.412Z,12.25
2023-04-23T06:32:21.752Z,12.35
2023-04-23T06:34:02.112Z,12.43
2023-04-23T06:35:42.491Z,12.53
2023-04-23T06:37:22.791Z,12.55
2023-04-23T06:39:03.153Z,12.6
2023-04-23T06:40:43.459Z,12.63
2023-04-23T06:42:23.874Z,12.77
2023-04-23T06:44:04.235Z,12.84
2023-04-23T06:45:44.512Z,12.83
2023-04-23T06:47:24.889Z,12.83
2023-04-23T06:49:05.219Z,12.83
2023-04-23T06:50:45.544Z,12.9
2023-04-23T06:52:25.876Z,12.97
2023-04-23T06:54:06.216Z,12.98
2023-04-23T06:55:46.569Z,12.91
2023-04-23T06:57:26.958Z,13.01
2023-04-23T06:59:07.285Z,13.07
2023-04-23T07:00:47.678Z,13.11
2023-04-23T07:02:27.990Z,13.19
2023-04-23T07:04:08.389Z,13.28
2023-04-23T07:05:48.595Z,13.42
2023-04-23T07:07:28.941Z,13.38
2023-04-23T07:09:09.295Z,13.56
2023-04-23T07:10:49.764Z,13.7
2023-04-23T07:12:30.162Z,13.86
2023-04-23T07:14:10.533Z,13.93
2023-04-23T07:15:50.890Z,14.07
2023-04-23T07:17:31.371Z,14.2
2023-04-23T07:19:11.663Z,14.24
2023-04-23T07:20:52.014Z,14.4
2023-04-23T07:22:32.304Z,14.52
2023-04-23T07:24:12.679Z,14.72
2023-04-23T07:25:53.071Z,14.89
2023-04-23T07:27:33.432Z,15
2023-04-23T07:29:13.792Z,15.05
2023-04-23T07:30:54.159Z,15.16
2023-04-23T07:32:34.501Z,15.38
2023-04-23T07:34:14.887Z,15.48
2023-04-23T07:35:55.213Z,15.57
2023-04-23T07:37:35.598Z,15.77
2023-04-23T07:39:15.924Z,15.77
2023-04-23T07:40:56.234Z,15.78
2023-04-23T07:42:36.587Z,15.99
2023-04-23T07:44:17.005Z,16.15
2023-04-23T07:45:57.499Z,16.39
2023-04-23T07:47:37.756Z,16.43
2023-04-23T07:49:18.082Z,16.43
2023-04-23T07:50:58.420Z,16.81
2023-04-23T07:52:38.844Z,16.67
2023-04-23T07:54:19.225Z,16.64
2023-04-23T07:55:59.581Z,16.82
2023-04-23T07:57:39.940Z,16.84
2023-04-23T07:59:20.327Z,16.87
2023-04-23T08:01:00.676Z,17.01
2023-04-23T08:02:41.266Z,17.33
2023-04-23T08:04:21.915Z,17.62
2023-04-23T08:06:01.720Z,17.77
2023-04-23T08:07:42.055Z,17.81
2023-04-23T08:09:22.414Z,17.94
2023-04-23T08:11:02.645Z,18.17
2023-04-23T08:12:42.947Z,18.08
2023-04-23T08:14:23.281Z,18.07
2023-04-23T08:15:21.714Z,0
2023-04-23T08:17:01.971Z,18.42
2023-04-23T08:18:46.138Z,18.55
2023-04-23T08:20:22.831Z,18.65
2023-04-23T08:22:02.986Z,18.75
2023-04-23T08:23:43.382Z,18.8
2023-04-23T08:25:23.707Z,19.06
2023-04-23T08:27:04.015Z,18.93
2023-04-23T08:28:44.453Z,18.99
2023-04-23T08:30:24.911Z,19.13
2023-04-23T08:32:05.346Z,19.34
2023-04-23T08:33:45.703Z,19.45
2023-04-23T08:35:26.089Z,19.48
2023-04-23T08:37:09.945Z,19.5
2023-04-23T08:38:46.799Z,19.64
2023-04-23T08:40:27.084Z,19.93
2023-04-23T08:42:07.455Z,19.95
2023-04-23T08:43:47.955Z,20.01
2023-04-23T08:45:28.208Z,20.21
2023-04-23T08:47:08.538Z,20.31
2023-04-23T08:48:48.878Z,20.21
2023-04-23T08:50:29.203Z,20.33
2023-04-23T08:52:09.561Z,20.54
2023-04-23T08:53:49.980Z,20.5
2023-04-23T08:55:30.392Z,20.3
2023-04-23T08:57:10.734Z,20.26
2023-04-23T08:58:51.117Z,20.54
2023-04-23T09:00:31.562Z,20.78
2023-04-23T09:02:11.838Z,20.58
2023-04-23T09:03:52.243Z,20.77
2023-04-23T09:05:32.571Z,20.89
2023-04-23T09:07:12.968Z,21.06
2023-04-23T09:08:53.299Z,21.36
2023-04-23T09:10:33.684Z,21.49
2023-04-23T09:12:14.044Z,21.71
2023-04-23T09:13:54.402Z,21.98
2023-04-23T09:15:34.793Z,21.9
2023-04-23T09:17:15.127Z,21.74
2023-04-23T09:18:55.425Z,21.61
2023-04-23T09:20:35.853Z,21.92
2023-04-23T09:22:16.210Z,21.53
2023-04-23T09:23:56.550Z,21.76
2023-04-23T09:25:36.851Z,22.02
2023-04-23T09:27:17.246Z,22.45
2023-04-23T09:28:57.544Z,22
2023-04-23T09:30:37.961Z,21.91
2023-04-23T09:32:18.401Z,22.28
2023-04-23T09:33:58.675Z,22.28
2023-04-23T09:35:40.743Z,21.73
2023-04-23T09:37:19.367Z,21.32
2023-04-23T09:38:59.710Z,21.6
2023-04-23T09:40:40.027Z,21.29
2023-04-23T09:42:20.387Z,21.02
2023-04-23T09:44:00.644Z,20.92
2023-04-23T09:45:41.035Z,21.12
2023-04-23T09:47:22.598Z,21.05
2023-04-23T09:49:01.721Z,21.09
2023-04-23T09:50:42.037Z,21.46
2023-04-23T09:52:22.446Z,21.5
2023-04-23T09:54:02.770Z,21.67
2023-04-23T09:55:43.207Z,21.95
2023-04-23T09:57:23.551Z,22.11
2023-04-23T09:59:03.830Z,22.09
2023-04-23T10:00:44.201Z,22.08
2023-04-23T10:02:24.685Z,21.64
2023-04-23T10:04:05.090Z,21.6
2023-04-23T10:06:00.254Z,21.63
2023-04-23T10:07:25.624Z,21.95
2023-04-23T10:09:06.053Z,21.8
2023-04-23T10:11:00.081Z,21.7
2023-04-23T10:12:41.102Z,21.7
2023-04-23T10:14:07.079Z,21.44
2023-04-23T10:15:47.467Z,21.32
2023-04-23T10:17:27.939Z,21.07
2023-04-23T10:19:08.130Z,21.09
2023-04-23T10:20:48.438Z,20.89
2023-04-23T10:22:28.821Z,20.77
2023-04-23T10:24:09.162Z,20.57
2023-04-23T10:25:49.501Z,20.3
2023-04-23T10:27:44.553Z,20.05
2023-04-23T10:29:10.228Z,19.86
2023-04-23T10:30:50.613Z,19.8
2023-04-23T10:32:30.974Z,19.66
2023-04-23T10:34:11.330Z,19.64
2023-04-23T10:35:51.604Z,19.71
2023-04-23T10:37:31.931Z,19.5
2023-04-23T10:39:12.316Z,19.5
2023-04-23T10:40:52.576Z,19.41
2023-04-23T10:42:32.925Z,19.34
2023-04-23T10:44:15.965Z,19.37
2023-04-23T10:45:53.513Z,19.32
2023-04-23T10:47:33.852Z,19.41
2023-04-23T10:49:14.143Z,19.71
2023-04-23T10:52:34.919Z,20.13
2023-04-23T10:54:15.294Z,20.01
2023-04-23T10:55:55.632Z,20.13
2023-04-23T10:57:36.042Z,20.84
2023-04-23T10:59:16.473Z,20.5
2023-04-23T11:00:56.780Z,20.19
2023-04-23T11:02:37.224Z,20.23
2023-04-23T11:04:17.931Z,20.21
2023-04-23T11:05:57.843Z,20.03
2023-04-23T11:07:38.126Z,20.1
2023-04-23T11:09:18.433Z,20.03
2023-04-23T11:10:58.745Z,20.06
2023-04-23T11:12:39.048Z,20.03
2023-04-23T11:14:19.388Z,20.09
2023-04-23T11:15:59.708Z,20.33
2023-04-23T11:17:39.921Z,20.27
2023-04-23T11:19:20.825Z,20.43
2023-04-23T11:21:00.585Z,20.55
2023-04-23T11:22:40.863Z,20.59
2023-04-23T11:24:21.195Z,21.07
2023-04-23T11:26:01.483Z,21.29
2023-04-23T11:27:41.744Z,21.57
2023-04-23T11:29:22.074Z,21.92
2023-04-23T11:31:02.394Z,21.8
2023-04-23T11:32:42.804Z,22.18
2023-04-23T11:34:23.004Z,22.29
2023-04-23T11:36:03.270Z,22.07
2023-04-23T11:37:43.678Z,21.84
2023-04-23T11:39:24.034Z,21.68
2023-04-23T11:41:04.387Z,21.49
2023-04-23T11:42:44.622Z,21.1
2023-04-23T11:44:25.007Z,20.84
2023-04-23T11:46:05.376Z,20.7
2023-04-23T11:47:45.678Z,20.55
2023-04-23T11:49:25.986Z,20.26
2023-04-23T11:51:06.350Z,20.06
2023-04-23T11:52:46.657Z,19.95
2023-04-23T11:54:26.998Z,19.75
2023-04-23T11:56:07.415Z,19.54
2023-04-23T11:57:47.722Z,19.42
2023-04-23T11:59:27.989Z,19.42
2023-04-23T12:01:08.331Z,19.23
2023-04-23T12:02:48.762Z,19.23
2023-04-23T12:04:29.171Z,19.18
2023-04-23T12:06:09.344Z,19.13
2023-04-23T12:07:49.743Z,19.06
2023-04-23T12:09:30.104Z,19.07
2023-04-23T12:11:10.413Z,19.06
2023-04-23T12:12:50.801Z,18.84
2023-04-23T12:14:31.278Z,18.65
2023-04-23T12:16:11.642Z,18.46
2023-04-23T12:17:51.955Z,18.35
2023-04-23T12:19:32.304Z,18.28
2023-04-23T12:21:12.712Z,18.29
2023-04-23T12:22:53.009Z,18.29
2023-04-23T12:24:33.391Z,18.38
2023-04-23T12:26:13.708Z,18.48
2023-04-23T12:27:54.049Z,18.56
2023-04-23T12:29:34.313Z,18.73
2023-04-23T12:31:14.699Z,18.9
2023-04-23T12:32:55.065Z,19.1
2023-04-23T12:34:35.327Z,19.17
2023-04-23T12:36:15.637Z,19.21
2023-04-23T12:37:56.060Z,19.06
2023-04-23T12:39:36.448Z,18.94
2023-04-23T12:41:16.787Z,18.79
2023-04-23T12:42:57.200Z,18.8
2023-04-23T12:44:37.440Z,18.87
2023-04-23T12:46:17.746Z,19.13
2023-04-23T12:47:58.167Z,19.06
2023-04-23T12:49:38.487Z,19.42
2023-04-23T12:51:18.853Z,19.76
2023-04-23T12:52:59.253Z,20.09
2023-04-23T12:54:39.521Z,20.5
2023-04-23T12:56:20.007Z,21.1
2023-04-23T12:58:00.334Z,21.42
2023-04-23T12:59:40.881Z,21.84
2023-04-23T13:01:21.025Z,22.13
2023-04-23T13:03:01.502Z,22.08
2023-04-23T13:04:41.781Z,22.07
2023-04-23T13:06:22.127Z,21.68
2023-04-23T13:08:02.538Z,21.61
2023-04-23T13:09:43.100Z,21.57
2023-04-23T13:11:23.078Z,21.65
2023-04-23T13:13:03.354Z,21.81
2023-04-23T13:14:43.631Z,21.95
2023-04-23T13:16:23.991Z,22.29
2023-04-23T13:18:04.313Z,22.12
2023-04-23T13:19:44.601Z,21.74
2023-04-23T13:21:26.248Z,21.3
2023-04-23T13:23:05.164Z,21.06
2023-04-23T13:24:45.468Z,20.89
2023-04-23T13:26:25.788Z,20.64
2023-04-23T13:28:06.021Z,20.44
2023-04-23T13:29:46.388Z,20.26
2023-04-23T13:31:26.667Z,20.05
2023-04-23T13:33:07.005Z,19.95
2023-04-23T13:34:47.273Z,19.78
2023-04-23T13:36:27.671Z,19.64
2023-04-23T13:38:08.029Z,19.57
2023-04-23T13:39:48.427Z,19.51
2023-04-23T13:41:28.792Z,19.32
2023-04-23T13:43:09.194Z,19.21
2023-04-23T13:44:49.567Z,19.15
2023-04-23T13:46:30.096Z,19.09
2023-04-23T13:48:10.326Z,18.93
2023-04-23T13:49:50.651Z,18.8
2023-04-23T13:51:34.707Z,18.75
2023-04-23T13:53:11.366Z,18.8
2023-04-23T13:54:51.742Z,18.82
2023-04-23T13:56:32.206Z,18.83
2023-04-23T13:58:12.535Z,18.77
2023-04-23T13:59:52.919Z,18.73
2023-04-23T14:01:33.335Z,18.76
2023-04-23T14:03:13.653Z,18.92
2023-04-23T14:04:54.001Z,18.97
2023-04-23T14:06:34.115Z,19.07
2023-04-23T14:08:14.454Z,19.28
2023-04-23T14:09:54.830Z,19.48
2023-04-23T14:11:35.271Z,19.5
2023-04-23T14:13:15.639Z,19.55
2023-04-23T14:14:55.913Z,19.65
2023-04-23T14:16:36.309Z,19.71
2023-04-23T14:18:16.702Z,19.83
2023-04-23T14:19:57.033Z,19.8
2023-04-23T14:21:37.322Z,20
2023-04-23T14:23:17.618Z,20.1
2023-04-23T14:24:58.045Z,20.15
2023-04-23T14:28:18.758Z,20.48
2023-04-23T14:29:59.152Z,20.77
2023-04-23T14:31:39.525Z,20.92
2023-04-23T14:33:19.830Z,20.98
2023-04-23T14:35:00.159Z,21.21
2023-04-23T14:36:40.467Z,21.06
2023-04-23T14:38:20.788Z,21.03
2023-04-23T14:40:01.145Z,21.09
2023-04-23T14:41:41.479Z,20.94
2023-04-23T14:43:21.766Z,20.88
2023-04-23T14:45:02.069Z,21.01
2023-04-23T14:46:42.441Z,20.99
2023-04-23T14:48:22.839Z,20.92
2023-04-23T14:50:03.219Z,20.81
2023-04-23T14:51:43.566Z,20.65
2023-04-23T14:53:23.909Z,20.71
2023-04-23T14:55:04.225Z,20.92
2023-04-23T14:56:44.584Z,21.12
2023-04-23T14:58:24.921Z,20.94
2023-04-23T15:00:05.302Z,20.98
2023-04-23T15:01:45.619Z,20.81
2023-04-23T15:03:26.022Z,20.61
2023-04-23T15:05:06.318Z,20.34
2023-04-23T15:06:46.631Z,20.24
2023-04-23T15:08:26.948Z,19.99
2023-04-23T15:10:07.352Z,19.8
2023-04-23T15:11:47.697Z,19.72
2023-04-23T15:13:28.076Z,19.62
2023-04-23T15:15:08.397Z,19.54
2023-04-23T15:16:50.027Z,19.28
2023-04-23T15:18:29.104Z,19.03
2023-04-23T15:20:09.429Z,18.84
2023-04-23T15:21:49.784Z,18.67
2023-04-23T15:23:30.183Z,18.49
2023-04-23T15:25:10.510Z,18.35
2023-04-23T15:26:50.891Z,18.25
2023-04-23T15:28:31.237Z,18.17
2023-04-23T15:30:11.505Z,18.07
2023-04-23T15:31:51.938Z,17.94
2023-04-23T15:33:32.289Z,17.88
2023-04-23T15:35:12.672Z,17.81
2023-04-23T15:36:52.988Z,17.69
2023-04-23T15:38:33.291Z,17.59
2023-04-23T15:40:13.634Z,17.5
2023-04-23T15:41:53.952Z,17.46
2023-04-23T15:43:34.261Z,17.38
2023-04-23T15:45:14.574Z,17.35
2023-04-23T15:46:54.913Z,17.36
2023-04-23T15:48:35.330Z,17.38
2023-04-23T15:50:15.603Z,17.3
2023-04-23T15:51:55.996Z,17.33
2023-04-23T15:53:36.293Z,17.4
2023-04-23T15:55:16.682Z,17.4
2023-04-23T15:56:57.052Z,17.49
2023-04-23T15:58:37.393Z,17.74
2023-04-23T16:00:17.855Z,18.04
2023-04-23T16:01:58.158Z,18.14
2023-04-23T16:03:38.640Z,18.27
2023-04-23T16:05:18.953Z,18.39
2023-04-23T16:06:59.283Z,18.44
2023-04-23T16:08:39.661Z,18.45
2023-04-23T16:10:19.996Z,18.48
2023-04-23T16:12:00.393Z,18.51
2023-04-23T16:13:40.747Z,18.48
2023-04-23T16:15:21.122Z,18.51
2023-04-23T16:17:01.614Z,18.48
2023-04-23T16:18:41.932Z,18.35
2023-04-23T16:20:22.274Z,18.32
2023-04-23T16:22:02.734Z,18.36
2023-04-23T16:23:43.088Z,18.34
2023-04-23T16:25:23.359Z,18.25
2023-04-23T16:27:03.661Z,18.19
2023-04-23T16:28:44.553Z,18.15
2023-04-23T16:30:24.422Z,18.05
2023-04-23T16:32:04.879Z,18
2023-04-23T16:33:45.296Z,17.93
2023-04-23T16:35:25.640Z,17.91
2023-04-23T16:37:06.059Z,17.87
2023-04-23T16:38:48.047Z,17.8
2023-04-23T16:40:26.780Z,17.72
2023-04-23T16:42:07.057Z,17.65
2023-04-23T16:43:47.482Z,17.62
2023-04-23T16:45:27.737Z,17.59
2023-04-23T16:47:08.058Z,17.56
2023-04-23T16:48:48.471Z,17.5
2023-04-23T16:50:28.855Z,17.46
2023-04-23T16:52:09.229Z,17.39
2023-04-23T16:53:49.556Z,17.35
2023-04-23T16:55:29.911Z,17.3
2023-04-23T16:57:10.271Z,17.26
2023-04-23T16:58:50.652Z,17.22
2023-04-23T17:00:31.006Z,17.14
2023-04-23T17:02:11.527Z,17.07
2023-04-23T17:03:51.878Z,17.05
2023-04-23T17:05:32.124Z,17.04
2023-04-23T17:07:12.592Z,16.96
2023-04-23T17:08:53.022Z,16.95
2023-04-23T17:10:33.401Z,16.95
2023-04-23T17:12:13.745Z,16.92
2023-04-23T17:13:54.090Z,16.96
2023-04-23T17:15:34.472Z,16.94
2023-04-23T17:17:14.891Z,16.92
2023-04-23T17:18:55.326Z,16.92
2023-04-23T17:20:35.683Z,16.9
2023-04-23T17:22:16.128Z,16.88
2023-04-23T17:23:56.431Z,16.81
2023-04-23T17:25:36.895Z,16.8
2023-04-23T17:27:17.280Z,16.78
2023-04-23T17:28:57.676Z,16.74
2023-04-23T17:30:38.028Z,16.7
2023-04-23T17:32:18.580Z,16.67
2023-04-23T17:33:58.909Z,16.63
2023-04-23T17:35:39.369Z,16.66
2023-04-23T17:37:19.745Z,16.61
2023-04-23T17:39:00.081Z,16.54
2023-04-23T17:40:40.518Z,16.49
2023-04-23T17:42:20.938Z,16.47
2023-04-23T17:44:01.356Z,16.39
2023-04-23T17:45:41.782Z,16.34
2023-04-23T17:47:22.180Z,16.32
2023-04-23T17:49:02.534Z,16.25
2023-04-23T17:50:42.962Z,16.2
2023-04-23T17:52:23.414Z,16.13
2023-04-23T17:54:03.828Z,16.04
2023-04-23T17:55:44.187Z,15.96
2023-04-23T17:57:24.568Z,15.92
2023-04-23T17:59:04.949Z,15.86
2023-04-23T18:00:45.463Z,15.78
2023-04-23T18:02:25.921Z,15.75
2023-04-23T18:04:06.421Z,15.71
2023-04-23T18:05:46.674Z,15.69
2023-04-23T18:07:27.071Z,15.64
2023-04-23T18:09:07.499Z,15.58
2023-04-23T18:10:47.891Z,15.53
2023-04-23T18:12:28.316Z,15.53
2023-04-23T18:14:08.734Z,15.46
2023-04-23T18:15:49.164Z,15.4
2023-04-23T18:17:29.565Z,15.36
2023-04-23T18:19:09.974Z,15.34
2023-04-23T18:20:50.392Z,15.36
2023-04-23T18:22:30.756Z,15.31
2023-04-23T18:24:11.101Z,15.26
2023-04-23T18:25:51.446Z,15.23
2023-04-23T18:27:34.046Z,15.2
2023-04-23T18:29:12.266Z,15.11
2023-04-23T18:30:52.733Z,15.07
2023-04-23T18:32:34.749Z,15.02
2023-04-23T18:34:13.566Z,15
2023-04-23T18:35:53.927Z,14.95
2023-04-23T18:37:34.300Z,14.89
2023-04-23T18:39:14.785Z,14.88
2023-04-23T18:40:55.149Z,14.85
2023-04-23T18:42:35.551Z,14.8
2023-04-23T18:44:15.928Z,14.75
2023-04-23T18:45:56.484Z,14.75
2023-04-23T18:47:36.887Z,14.74
2023-04-23T18:49:17.130Z,14.71
2023-04-23T18:50:57.650Z,14.67
2023-04-23T18:52:38.114Z,14.62
2023-04-23T18:54:18.540Z,14.59
2023-04-23T18:55:58.906Z,14.58
2023-04-23T18:57:39.363Z,14.57
2023-04-23T18:59:19.833Z,14.55
2023-04-23T19:01:00.181Z,14.53
2023-04-23T19:02:40.621Z,14.55
2023-04-23T19:04:21.030Z,14.57
2023-04-23T19:06:01.254Z,14.55
2023-04-23T19:07:41.663Z,14.57
2023-04-23T19:09:22.032Z,14.51
2023-04-23T19:11:02.453Z,14.45
2023-04-23T19:12:42.891Z,14.35
2023-04-23T19:14:23.329Z,14.3
2023-04-23T19:16:03.843Z,14.28
2023-04-23T19:17:44.284Z,14.28
2023-04-23T19:19:24.727Z,14.23
2023-04-23T19:21:05.165Z,14.21
2023-04-23T19:22:45.585Z,14.21
2023-04-23T19:24:26.026Z,14.2
2023-04-23T19:26:06.307Z,14.19
2023-04-23T19:27:46.617Z,14.19
2023-04-23T19:29:27.023Z,14.2
2023-04-23T19:31:07.473Z,14.21
2023-04-23T19:32:47.875Z,14.17
2023-04-23T19:34:28.293Z,14.19
2023-04-23T19:36:08.614Z,14.17
2023-04-23T19:37:49.002Z,14.24
2023-04-23T19:39:29.449Z,14.37
2023-04-23T19:41:09.793Z,14.55
2023-04-23T19:42:50.257Z,14.65
2023-04-23T19:44:30.713Z,14.65
2023-04-23T19:46:11.105Z,14.61
2023-04-23T19:47:51.628Z,14.62
2023-04-23T19:49:32.008Z,14.59
2023-04-23T19:51:12.403Z,14.55
2023-04-23T19:52:52.850Z,14.49
2023-04-23T19:54:33.254Z,14.42
2023-04-23T19:56:13.584Z,14.34
2023-04-23T19:57:53.995Z,14.25
2023-04-23T19:59:34.411Z,14.17
2023-04-23T20:01:14.750Z,14.04
2023-04-23T20:02:55.164Z,13.94
2023-04-23T20:04:35.345Z,13.8
2023-04-23T20:06:15.689Z,13.66
2023-04-23T20:07:56.099Z,13.51
2023-04-23T20:09:36.547Z,13.39
2023-04-23T20:11:16.927Z,13.24
2023-04-23T20:12:57.324Z,13.11
2023-04-23T20:14:37.740Z,13
2023-04-23T20:16:18.124Z,12.87
2023-04-23T20:17:58.555Z,12.76
2023-04-23T20:19:38.890Z,12.73
2023-04-23T20:21:19.235Z,12.69
2023-04-23T20:22:59.698Z,12.63
2023-04-23T20:24:40.071Z,12.57
2023-04-23T20:26:20.433Z,12.5
2023-04-23T20:28:00.782Z,12.45
2023-04-23T20:29:41.551Z,12.4
2023-04-23T20:31:21.540Z,12.35
2023-04-23T20:33:01.989Z,12.33
2023-04-23T20:34:42.333Z,12.29
2023-04-23T20:36:22.664Z,12.28
2023-04-23T20:38:03.110Z,12.29
2023-04-23T20:39:43.959Z,12.25
2023-04-23T20:41:23.902Z,12.21
2023-04-23T20:43:04.308Z,12.19
2023-04-23T20:44:44.616Z,12.18
2023-04-23T20:46:24.992Z,12.15
2023-04-23T20:48:05.379Z,12.15
2023-04-23T20:49:45.522Z,12.15
2023-04-23T20:51:25.834Z,12.21
2023-04-23T20:53:06.219Z,12.21
2023-04-23T20:54:46.532Z,12.21
2023-04-23T20:56:26.924Z,12.22
2023-04-23T20:58:07.310Z,12.27
2023-04-23T20:59:47.748Z,12.24
2023-04-23T21:01:28.154Z,12.21
2023-04-23T21:03:08.653Z,12.22
2023-04-23T21:04:49.039Z,12.24
2023-04-23T21:06:29.336Z,12.22
2023-04-23T21:08:09.739Z,12.24
2023-04-23T21:09:50.205Z,12.25
2023-04-23T21:11:30.577Z,12.24
2023-04-23T21:13:11.016Z,12.27
2023-04-23T21:14:51.409Z,12.27
2023-04-23T21:16:31.998Z,12.24
2023-04-23T21:18:12.361Z,12.19
2023-04-23T21:19:52.763Z,12.11
2023-04-23T21:21:33.209Z,12.08
2023-04-23T21:23:13.551Z,12.01
2023-04-23T21:24:53.861Z,11.95
2023-04-23T21:26:34.157Z,11.9
2023-04-23T21:28:14.462Z,11.82
2023-04-23T21:29:54.749Z,11.78
2023-04-23T21:31:35.093Z,11.74
2023-04-23T21:33:15.378Z,11.71
2023-04-23T21:34:55.671Z,11.67
2023-04-23T21:36:35.988Z,11.59
2023-04-23T21:38:16.420Z,11.47
2023-04-23T21:39:56.933Z,11.4
2023-04-23T21:41:37.388Z,11.33
2023-04-23T21:43:17.833Z,11.25
2023-04-23T21:44:58.298Z,11.22